Time;durP1;ratioP1;P1;durP2;ratioP2;P2;SDS_P1;SDS_P2;PMS_P1;PMS_P2;Temp;Humidity;BMP_temperature;BMP_pressure;BME280_temperature;BME280_humidity;BME280_pressure;Samples;Min_cycle;Max_cycle;Signal;HPM_P1;HPM_P2
2022/01/22 00:01:08;;;;;;;17.77;8.57;;;;;;;4.08;51.48;97990.25;3369753;29;20125;-74
2022/01/22 00:02:49;;;;;;;17.48;9.02;;;;;;;4.08;51.30;97985.81;3371967;29;20357;-74
2022/01/22 00:04:30;;;;;;;12.25;8.23;;;;;;;4.08;51.44;97996.38;3356544;29;20104;-74
2022/01/22 00:06:11;;;;;;;13.65;9.10;;;;;;;4.08;51.48;97995.53;3369013;29;20045;-74
2022/01/22 00:07:51;;;;;;;15.25;8.75;;;;;;;4.07;51.65;97991.28;3370890;29;20052;-74
2022/01/22 00:09:38;;;;;;;14.48;8.75;;;;;;;4.07;51.54;97994.72;3371908;29;20048;-75
2022/01/22 00:11:19;;;;;;;11.23;7.35;;;;;;;4.06;51.63;97987.03;3373667;29;20432;-75
2022/01/22 00:14:40;;;;;;;14.98;10.10;;;;;;;4.08;51.61;97992.91;3357448;29;20533;-75
2022/01/22 00:16:21;;;;;;;15.35;10.02;;;;;;;4.09;51.85;98003.25;3368029;29;20531;-75
2022/01/22 00:18:04;;;;;;;14.00;8.55;;;;;;;4.10;51.67;98004.06;3372195;29;20045;-75
2022/01/22 00:19:45;;;;;;;16.50;8.82;;;;;;;4.11;51.92;98000.44;3370093;29;20508;-75
2022/01/22 00:21:26;;;;;;;11.75;7.97;;;;;;;4.14;52.02;98005.31;3371291;29;20049;-75
2022/01/22 00:23:07;;;;;;;11.98;8.18;;;;;;;4.14;52.09;97998.22;3370018;29;20097;-75
2022/01/22 00:24:53;;;;;;;15.05;8.15;;;;;;;4.13;51.85;98001.88;3372232;29;20052;-73
2022/01/22 00:26:34;;;;;;;15.15;8.57;;;;;;;4.15;51.89;98004.28;3370294;29;20068;-74
2022/01/22 00:28:21;;;;;;;13.13;8.35;;;;;;;4.15;51.72;98002.47;3376655;29;20076;-75
2022/01/22 00:30:04;;;;;;;12.90;7.75;;;;;;;4.15;51.72;98001.66;3371733;29;20135;-74
2022/01/22 00:31:45;;;;;;;12.65;7.57;;;;;;;4.15;51.70;97996.38;3371498;29;20041;-75
2022/01/22 00:33:25;;;;;;;12.43;7.88;;;;;;;4.16;51.78;98003.31;3370434;29;20488;-74
2022/01/22 00:35:06;;;;;;;16.15;10.20;;;;;;;4.18;51.64;98003.09;3371738;29;20390;-74
2022/01/22 00:36:47;;;;;;;12.48;8.32;;;;;;;4.19;51.71;98010.00;3372141;29;20487;-74
2022/01/22 00:38:34;;;;;;;13.60;8.30;;;;;;;4.18;51.71;98009.19;3361125;29;20037;-76
2022/01/22 00:40:16;;;;;;;12.15;8.02;;;;;;;4.19;51.80;98008.19;3370982;29;20609;-74
2022/01/22 00:41:58;;;;;;;14.82;8.70;;;;;;;4.19;51.63;98010.81;3382386;29;20040;-74
2022/01/22 00:43:39;;;;;;;15.25;8.30;;;;;;;4.19;51.62;98010.81;3373316;29;20045;-75
2022/01/22 00:45:20;;;;;;;17.20;8.68;;;;;;;4.20;51.76;98019.53;3376062;29;20560;-75
2022/01/22 00:47:02;;;;;;;13.43;8.95;;;;;;;4.19;51.68;98017.91;3382975;29;20171;-76
2022/01/22 00:48:43;;;;;;;12.30;8.77;;;;;;;4.20;51.64;98019.53;3373850;29;20188;-74
2022/01/22 00:50:24;;;;;;;11.13;8.40;;;;;;;4.16;51.73;98024.41;3368123;29;20032;-74
2022/01/22 00:52:06;;;;;;;12.63;8.30;;;;;;;4.20;51.88;98027.44;3371427;29;20039;-74
2022/01/22 00:53:46;;;;;;;11.63;8.40;;;;;;;4.19;51.73;98023.19;3372120;29;20527;-74
2022/01/22 00:55:27;;;;;;;12.68;7.50;;;;;;;4.17;51.96;98023.38;3371537;29;20045;-75
2022/01/22 00:57:08;;;;;;;13.63;8.32;;;;;;;4.14;52.19;98023.78;3370036;29;20041;-75
2022/01/22 00:58:49;;;;;;;14.95;9.55;;;;;;;4.13;51.80;98020.34;3373399;29;20036;-73
2022/01/22 01:00:31;;;;;;;;;;;;;;;4.24;51.69;98029.50;3373952;29;20416;-75
2022/01/22 01:02:12;;;;;;;13.77;8.57;;;;;;;4.18;51.59;98026.81;3368548;29;19927;-73
2022/01/22 01:03:53;;;;;;;14.57;8.55;;;;;;;4.15;51.75;98025.38;3367818;29;20760;-76
2022/01/22 01:05:34;;;;;;;13.98;7.63;;;;;;;4.15;51.88;98028.03;3368090;29;20428;-75
2022/01/22 01:07:15;;;;;;;14.55;9.02;;;;;;;4.13;51.61;98030.03;3370748;29;20443;-75
2022/01/22 01:08:59;;;;;;;13.27;8.25;;;;;;;4.12;51.50;98034.50;3376715;29;20044;-77
2022/01/22 01:10:41;;;;;;;13.05;8.00;;;;;;;4.10;51.72;98038.34;3374331;29;20073;-76
2022/01/22 01:12:22;;;;;;;14.35;9.20;;;;;;;4.09;51.65;98023.53;3370170;29;20454;-75
2022/01/22 01:14:06;;;;;;;14.63;8.25;;;;;;;4.08;51.59;98033.28;3379467;29;20123;-77
2022/01/22 01:16:01;;;;;;;9.98;7.60;;;;;;;4.08;51.41;98037.72;3371403;29;20072;-76
2022/01/22 01:33:32;;;;;;;13.13;7.82;;;;;;;4.12;51.52;98046.88;3374122;29;20044;-76
2022/01/22 01:35:13;;;;;;;11.30;7.35;;;;;;;4.11;51.49;98038.16;3359050;29;20140;-75
2022/01/22 01:36:54;;;;;;;13.63;7.47;;;;;;;4.11;51.60;98042.63;3365362;29;20036;-76
2022/01/22 01:38:40;;;;;;;11.73;7.55;;;;;;;4.10;51.75;98043.59;3367956;29;20068;-76
2022/01/22 01:40:23;;;;;;;12.23;7.72;;;;;;;4.11;51.62;98037.34;3353447;29;20524;-74
2022/01/22 01:42:12;;;;;;;10.80;7.38;;;;;;;4.10;51.78;98048.88;3377083;29;20044;-75
2022/01/22 01:43:55;;;;;;;10.65;7.13;;;;;;;4.07;51.66;98050.09;3369517;29;20045;-78
2022/01/22 01:46:00;;;;;;;11.82;8.18;;;;;;;4.04;51.70;98041.75;3366784;29;20099;-79
2022/01/22 01:47:44;;;;;;;13.52;8.40;;;;;;;3.99;51.84;98046.78;3375007;29;20464;-75
2022/01/22 01:49:25;;;;;;;13.68;7.78;;;;;;;3.93;51.68;98046.56;3363505;29;20055;-78
2022/01/22 01:51:08;;;;;;;12.10;7.97;;;;;;;3.89;51.71;98044.50;3362071;29;20041;-76
2022/01/22 01:53:04;;;;;;;11.18;6.38;;;;;;;3.83;51.42;98047.91;3363940;29;20045;-76
2022/01/22 01:58:30;;;;;;;17.65;8.75;;;;;;;3.68;51.68;98048.81;3388856;29;20040;-76
2022/01/22 02:00:15;;;;;;;15.18;8.48;;;;;;;3.61;51.67;98052.38;3382708;29;20055;-76
2022/01/22 02:02:03;;;;;;;13.90;7.82;;;;;;;3.57;51.82;98053.78;3387403;29;20058;-75
2022/01/22 02:03:45;;;;;;;9.73;7.53;;;;;;;3.53;51.81;98055.16;3375403;29;20550;-76
2022/01/22 02:05:34;;;;;;;12.73;8.13;;;;;;;3.47;51.77;98047.00;3375634;29;20052;-77
2022/01/22 02:07:15;;;;;;;11.07;7.50;;;;;;;3.43;51.70;98061.59;3373918;29;20057;-78
2022/01/22 02:09:06;;;;;;;11.13;7.88;;;;;;;3.41;51.76;98066.22;3383600;29;20413;-75
2022/01/22 02:10:56;;;;;;;12.18;7.78;;;;;;;3.37;51.85;98064.94;3366475;29;20104;-75
2022/01/22 02:23:58;;;;;;;10.77;5.82;;;;;;;3.15;51.85;98074.69;3371958;29;20139;-76
2022/01/22 02:25:32;;;;;;;9.85;7.15;;;;;;;3.13;52.01;98070.59;3360666;29;20116;-75
2022/01/22 02:27:14;;;;;;;11.73;7.13;;;;;;;3.12;52.23;98076.84;3372693;29;20044;-76
2022/01/22 02:28:55;;;;;;;11.25;8.00;;;;;;;3.09;52.25;98074.59;3349342;29;20046;-77
2022/01/22 02:30:48;;;;;;;11.57;7.63;;;;;;;3.09;52.38;98077.22;3372078;29;20044;-75
2022/01/22 02:33:18;;;;;;;8.95;6.63;;;;;;;3.08;52.41;98075.59;3361942;29;20193;-73
2022/01/22 02:35:12;;;;;;;11.02;7.03;;;;;;;3.03;52.20;98076.16;3495077;27;1667115;-75
2022/01/22 02:37:03;;;;;;;9.27;6.95;;;;;;;2.99;52.40;98067.81;3536148;27;20039;-76
2022/01/22 02:39:09;;;;;;;7.97;5.97;;;;;;;2.99;52.42;98075.69;3535216;28;20602;-74
2022/01/22 02:40:50;;;;;;;11.00;6.55;;;;;;;2.98;52.14;98073.28;3496034;28;20547;-74
2022/01/22 02:42:34;;;;;;;9.05;6.88;;;;;;;2.96;52.37;98073.44;3517728;28;20052;-75
2022/01/22 02:44:32;;;;;;;11.90;7.05;;;;;;;2.92;52.52;98082.72;3521273;28;20184;-75
2022/01/22 02:46:17;;;;;;;12.90;7.70;;;;;;;2.91;52.45;98080.28;3520379;28;20051;-74
2022/01/22 02:47:58;;;;;;;10.65;6.47;;;;;;;2.91;52.51;98078.44;3505009;28;20047;-73
2022/01/22 02:49:39;;;;;;;12.75;7.50;;;;;;;2.91;52.59;98080.28;3518035;28;20040;-75
2022/01/22 02:51:26;;;;;;;11.50;7.05;;;;;;;2.89;52.51;98083.09;3522874;28;20036;-76
2022/01/22 02:53:12;;;;;;;12.30;7.13;;;;;;;2.86;52.57;98086.06;3532932;28;20047;-75
2022/01/22 02:54:54;;;;;;;12.80;6.97;;;;;;;2.87;52.68;98085.09;3532638;28;20609;-74
2022/01/22 02:56:38;;;;;;;11.77;6.97;;;;;;;2.87;52.60;98087.72;3532367;28;20039;-75
2022/01/22 02:58:19;;;;;;;9.68;6.97;;;;;;;2.86;52.71;98088.72;3532923;28;20405;-76
2022/01/22 03:00:06;;;;;;;11.50;6.53;;;;;;;2.87;52.86;98093.00;3532242;28;20081;-74
2022/01/22 03:01:47;;;;;;;14.95;7.82;;;;;;;2.86;52.86;98090.53;3521867;28;20032;-75
2022/01/22 03:03:28;;;;;;;11.35;7.75;;;;;;;2.86;52.81;98093.97;3521628;28;20101;-75
2022/01/22 03:05:10;;;;;;;20.38;9.75;;;;;;;2.85;52.78;98097.63;3520750;28;20043;-73
2022/01/22 03:06:50;;;;;;;12.53;7.17;;;;;;;2.83;52.77;98095.16;3518245;28;20035;-75
2022/01/22 03:08:32;;;;;;;10.23;6.65;;;;;;;2.82;53.20;98105.88;3521726;28;20791;-72
2022/01/22 03:10:15;;;;;;;11.77;7.32;;;;;;;2.80;53.06;98099.97;3520708;28;20043;-77
2022/01/22 03:12:20;;;;;;;12.18;6.60;;;;;;;2.79;53.13;98108.88;3533533;28;20043;-74
2022/01/22 03:16:10;;;;;;;9.68;6.38;;;;;;;2.77;53.12;98105.63;3532398;28;20039;-75
2022/01/22 03:18:04;;;;;;;11.40;6.82;;;;;;;2.77;53.02;98113.50;3534898;28;20130;-75
2022/01/22 03:21:54;;;;;;;11.75;7.07;;;;;;;2.76;52.91;98111.84;3528506;28;20438;-76
2022/01/22 03:27:30;;;;;;;10.32;6.80;;;;;;;2.75;52.94;98118.13;3534882;28;20099;-74
2022/01/22 03:29:17;;;;;;;13.23;6.28;;;;;;;2.75;53.10;98123.38;3535749;27;20042;-75
2022/01/22 03:30:58;;;;;;;15.10;8.23;;;;;;;2.71;53.09;98119.47;3536480;27;20138;-75
2022/01/22 03:32:45;;;;;;;8.88;6.13;;;;;;;2.71;52.74;98124.75;3524083;28;20040;-74
2022/01/22 03:34:35;;;;;;;12.13;6.93;;;;;;;2.70;53.11;98125.75;3506753;28;20078;-76
2022/01/22 03:36:16;;;;;;;9.32;7.13;;;;;;;2.70;52.90;98129.19;3520046;28;20048;-74
2022/01/22 03:37:58;;;;;;;10.05;7.22;;;;;;;2.68;53.01;98133.00;3520724;28;20044;-76
2022/01/22 03:39:40;;;;;;;12.85;6.55;;;;;;;2.69;53.03;98132.03;3517801;28;20533;-75
2022/01/22 03:41:23;;;;;;;11.85;6.68;;;;;;;2.69;53.11;98139.91;3515181;28;20035;-76
2022/01/22 03:43:07;;;;;;;11.80;6.85;;;;;;;2.70;53.26;98133.66;3516262;28;20040;-77
2022/01/22 03:44:48;;;;;;;12.38;6.88;;;;;;;2.71;53.04;98140.53;3517556;28;20043;-77
2022/01/22 03:46:30;;;;;;;10.40;6.65;;;;;;;2.69;53.30;98143.34;3519562;28;20470;-75
2022/01/22 03:48:11;;;;;;;10.05;7.68;;;;;;;2.69;53.18;98148.63;3519362;28;20036;-76
2022/01/22 03:49:52;;;;;;;11.52;6.85;;;;;;;2.68;53.24;98152.22;3511430;28;20056;-75
2022/01/22 03:51:33;;;;;;;9.20;6.57;;;;;;;2.66;53.37;98153.41;3522202;28;20035;-74
2022/01/22 03:53:14;;;;;;;12.52;7.25;;;;;;;2.66;53.24;98154.25;3507123;28;20039;-75
2022/01/22 03:54:54;;;;;;;11.48;7.05;;;;;;;2.65;53.35;98162.31;3508085;28;20036;-72
2022/01/22 03:56:55;;;;;;;12.00;7.38;;;;;;;2.66;53.24;98161.28;3511540;28;20529;-71
2022/01/22 03:58:51;;;;;;;11.50;7.18;;;;;;;2.67;53.27;98170.84;3510771;28;20040;-69
2022/01/22 04:01:03;;;;;;;8.55;5.88;;;;;;;2.67;53.18;98162.94;3523555;28;20096;-70
2022/01/22 04:04:40;;;;;;;13.82;7.35;;;;;;;2.68;53.41;98169.81;3511777;28;20040;-72
2022/01/22 04:08:15;;;;;;;8.77;6.07;;;;;;;2.65;53.46;98178.09;3515827;28;20494;-71
2022/01/22 04:10:02;;;;;;;8.73;6.65;;;;;;;2.60;53.94;98173.38;3525075;28;20036;-72
2022/01/22 04:11:45;;;;;;;10.48;6.05;;;;;;;2.61;54.37;98178.44;3510269;28;20044;-73
2022/01/22 04:13:32;;;;;;;8.68;5.82;;;;;;;2.59;53.93;98169.91;3512168;28;20078;-70
2022/01/22 04:15:15;;;;;;;12.82;6.45;;;;;;;2.60;53.91;98179.44;3511670;28;20526;-76
2022/01/22 04:25:20;;;;;;;12.50;6.90;;;;;;;2.60;53.88;98176.81;3511102;28;20048;-72
2022/01/22 04:27:11;;;;;;;9.70;6.93;;;;;;;2.60;54.10;98187.31;3511556;28;20545;-72
2022/01/22 04:28:52;;;;;;;10.80;6.75;;;;;;;2.61;54.00;98188.16;3511474;28;20044;-72
2022/01/22 04:30:33;;;;;;;9.77;5.95;;;;;;;2.62;54.20;98195.84;3510954;28;20502;-71
2022/01/22 04:32:13;;;;;;;8.50;6.50;;;;;;;2.62;54.24;98203.75;3513772;28;20035;-72
2022/01/22 04:33:56;;;;;;;9.52;6.10;;;;;;;2.62;54.43;98200.31;3525150;28;20039;-72
2022/01/22 04:35:37;;;;;;;13.65;6.57;;;;;;;2.60;54.48;98203.09;3525314;28;20494;-72
2022/01/22 04:37:19;;;;;;;;;;;;;;;2.70;54.31;98194.13;3525863;28;20395;-70
2022/01/22 04:38:59;;;;;;;9.43;5.78;;;;;;;2.61;54.46;98194.22;3511526;28;19918;-72
2022/01/22 04:40:40;;;;;;;8.98;5.93;;;;;;;2.60;54.75;98191.78;3511103;28;20043;-71
2022/01/22 04:42:25;;;;;;;10.55;7.10;;;;;;;2.58;54.87;98209.53;3514253;28;20046;-72
2022/01/22 04:44:07;;;;;;;11.63;6.53;;;;;;;2.57;54.92;98206.09;3524169;28;20043;-72
2022/01/22 04:46:05;;;;;;;9.57;5.97;;;;;;;2.55;54.95;98191.50;3521422;28;20413;-71
2022/01/22 04:48:23;;;;;;;13.65;6.20;;;;;;;2.56;54.84;98203.66;3509634;28;20078;-72
2022/01/22 04:55:54;;;;;;;10.40;7.57;;;;;;;2.58;55.22;98220.06;3509697;28;20525;-72
2022/01/22 04:57:37;;;;;;;12.13;6.60;;;;;;;2.58;55.44;98223.53;3507321;28;20040;-70
2022/01/22 04:59:18;;;;;;;12.13;6.72;;;;;;;2.57;55.58;98218.44;3507286;28;20039;-70
2022/01/22 05:00:59;;;;;;;9.30;6.57;;;;;;;2.56;56.33;98220.25;3507136;28;20105;-70
2022/01/22 05:03:06;;;;;;;10.93;6.53;;;;;;;2.58;56.45;98226.16;3489203;28;20056;-70
2022/01/22 05:05:06;;;;;;;12.52;6.97;;;;;;;2.57;56.87;98229.75;3510828;28;20044;-70
2022/01/22 05:07:14;;;;;;;8.63;6.55;;;;;;;2.57;56.73;98221.88;3510209;28;20040;-70
2022/01/22 05:09:13;;;;;;;10.95;7.72;;;;;;;2.57;56.86;98229.75;3510259;28;20490;-71
2022/01/22 05:11:08;;;;;;;12.45;7.68;;;;;;;2.56;56.37;98236.03;3495675;28;20090;-69
2022/01/22 05:12:51;;;;;;;13.02;7.75;;;;;;;2.56;56.49;98238.66;3506603;28;20078;-70
2022/01/22 05:14:35;;;;;;;12.18;7.78;;;;;;;2.57;56.47;98253.44;3508535;28;20048;-70
2022/01/22 05:16:23;;;;;;;12.50;7.90;;;;;;;2.58;56.60;98241.94;3529844;27;20035;-69
2022/01/22 05:18:11;;;;;;;10.85;6.57;;;;;;;2.61;56.43;98246.03;3518457;28;20046;-69
2022/01/22 05:20:43;;;;;;;11.03;6.50;;;;;;;2.60;56.54;98250.44;3521158;28;20073;-70
2022/01/22 05:22:03;;;;;;;10.75;7.07;;;;;;;2.61;56.35;98257.34;3509950;28;20293;-70
2022/01/22 05:23:46;;;;;;;11.00;6.47;;;;;;;2.61;56.25;98246.84;3516701;28;20548;-69
2022/01/22 05:25:41;;;;;;;9.85;6.63;;;;;;;2.61;56.25;98251.28;3507216;28;20035;-69
2022/01/22 05:27:46;;;;;;;9.45;6.68;;;;;;;2.61;56.20;98257.34;3511106;28;20044;-69
2022/01/22 05:37:55;;;;;;;11.93;8.48;;;;;;;2.57;56.03;98274.47;3510479;28;20051;-70
2022/01/22 05:39:36;;;;;;;9.88;6.95;;;;;;;2.55;55.95;98276.47;3509196;28;20040;-74
2022/01/22 05:41:17;;;;;;;12.85;7.35;;;;;;;2.53;56.36;98283.72;3506394;28;20036;-68
2022/01/22 05:42:58;;;;;;;10.25;7.85;;;;;;;2.52;56.63;98289.97;3516982;28;20046;-67
2022/01/22 05:44:41;;;;;;;;;;;;;;;2.62;56.29;98279.22;3524041;28;20092;-68
2022/01/22 05:46:21;;;;;;;13.15;7.15;;;;;;;2.55;56.19;98279.09;3524314;28;19916;-72
2022/01/22 05:48:02;;;;;;;9.40;6.65;;;;;;;2.54;56.31;98285.34;3509244;28;20063;-71
2022/01/22 05:49:44;;;;;;;13.10;7.13;;;;;;;2.53;56.32;98291.63;3521040;28;20040;-69
2022/01/22 05:51:25;;;;;;;15.02;8.07;;;;;;;2.53;56.21;98291.63;3523047;28;20043;-71
2022/01/22 05:53:16;;;;;;;10.82;7.55;;;;;;;2.55;56.27;98286.97;3513738;28;20563;-71
2022/01/22 06:00:44;;;;;;;17.45;8.60;;;;;;;2.61;56.23;98301.25;3522741;28;20498;-70
2022/01/22 06:02:37;;;;;;;11.00;7.95;;;;;;;2.61;55.84;98309.97;3507580;28;20683;-69
2022/01/22 06:04:18;;;;;;;11.40;7.45;;;;;;;2.60;55.77;98313.56;3506379;28;20128;-69
2022/01/22 06:06:01;;;;;;;12.82;7.75;;;;;;;2.62;55.48;98313.41;3506490;28;20048;-69
2022/01/22 06:07:41;;;;;;;13.88;8.63;;;;;;;2.60;55.84;98313.56;3510715;28;20046;-68
2022/01/22 06:09:24;;;;;;;11.60;7.93;;;;;;;2.61;55.91;98309.16;3513335;28;20067;-68
2022/01/22 06:11:10;;;;;;;12.23;7.55;;;;;;;2.61;55.76;98315.22;3509973;28;20419;-70
2022/01/22 06:14:38;;;;;;;13.75;7.60;;;;;;;2.61;55.89;98314.41;3519846;28;20044;-69
2022/01/22 06:16:21;;;;;;;9.18;6.82;;;;;;;2.59;55.94;98322.47;3523840;28;20494;-70
2022/01/22 06:18:20;;;;;;;13.15;7.47;;;;;;;2.64;55.82;98326.38;3524141;28;20489;-68
2022/01/22 06:20:06;;;;;;;11.60;7.65;;;;;;;2.66;55.81;98332.25;3520944;28;20043;-70
2022/01/22 06:21:50;;;;;;;9.15;7.35;;;;;;;2.61;55.62;98325.75;3505944;28;20114;-70
2022/01/22 06:23:31;;;;;;;13.75;8.32;;;;;;;2.65;55.72;98335.91;3518054;28;20035;-70
2022/01/22 06:25:12;;;;;;;12.88;8.35;;;;;;;2.64;55.75;98334.28;3523729;28;20061;-70
2022/01/22 06:26:53;;;;;;;13.70;7.72;;;;;;;2.65;55.74;98338.53;3522729;28;20535;-69
2022/01/22 06:28:34;;;;;;;11.32;7.40;;;;;;;2.64;55.66;98337.72;3520071;28;20043;-69
2022/01/22 06:30:16;;;;;;;10.43;7.95;;;;;;;2.67;55.80;98347.06;3505843;28;20071;-69
2022/01/22 06:32:02;;;;;;;19.50;8.68;;;;;;;2.65;55.67;98341.16;3521081;28;20054;-70
2022/01/22 06:33:47;;;;;;;11.82;8.60;;;;;;;2.68;55.57;98343.44;3507997;28;20036;-70
2022/01/22 06:35:28;;;;;;;12.85;8.30;;;;;;;2.70;55.40;98349.34;3509312;28;20691;-71
2022/01/22 06:37:09;;;;;;;13.02;8.20;;;;;;;2.71;55.47;98348.31;3505739;28;20106;-70
2022/01/22 06:39:09;;;;;;;11.85;8.55;;;;;;;2.73;55.68;98348.97;3518692;28;20083;-69
2022/01/22 06:43:28;;;;;;;13.48;8.23;;;;;;;2.81;55.24;98351.53;3516942;28;20036;-71
2022/01/22 06:45:28;;;;;;;16.98;8.07;;;;;;;2.84;55.30;98351.19;3523488;28;20052;-69
2022/01/22 06:47:17;;;;;;;12.82;7.50;;;;;;;2.84;55.25;98356.47;3522872;28;20043;-69
2022/01/22 06:49:16;;;;;;;11.00;7.97;;;;;;;2.85;55.12;98352.81;3523619;28;20051;-70
2022/01/22 06:51:17;;;;;;;12.60;7.63;;;;;;;2.87;55.16;98361.38;3522226;28;20047;-70
2022/01/22 06:52:58;;;;;;;12.75;6.97;;;;;;;2.87;55.17;98365.81;3516859;28;20039;-71
2022/01/22 06:54:55;;;;;;;10.52;8.18;;;;;;;2.88;55.12;98360.34;3507603;28;20460;-70
2022/01/22 06:56:37;;;;;;;14.63;8.05;;;;;;;2.90;55.27;98368.09;3505856;28;20040;-70
2022/01/22 06:58:29;;;;;;;13.98;8.98;;;;;;;2.91;55.06;98373.16;3507509;28;20434;-70
2022/01/22 07:00:22;;;;;;;9.95;7.95;;;;;;;2.93;55.02;98379.06;3520111;28;20140;-70
2022/01/22 07:02:13;;;;;;;10.70;7.03;;;;;;;2.95;55.16;98376.25;3521098;28;20050;-69
2022/01/22 07:03:55;;;;;;;14.80;9.25;;;;;;;2.96;55.17;98391.03;3507788;28;20043;-69
2022/01/22 07:05:55;;;;;;;17.05;7.50;;;;;;;2.97;55.08;98390.88;3508681;28;20570;-70
2022/01/22 07:07:38;;;;;;;12.45;8.05;;;;;;;2.98;55.12;98395.13;3505889;28;20426;-69
2022/01/22 07:09:19;;;;;;;16.48;8.82;;;;;;;3.00;55.05;98397.59;3505849;28;20043;-70
2022/01/22 07:11:00;;;;;;;13.57;8.38;;;;;;;3.00;55.10;98401.03;3509605;28;20039;-71
2022/01/22 07:12:41;;;;;;;14.32;8.25;;;;;;;3.03;55.06;98402.50;3509181;28;20040;-70
2022/01/22 07:14:22;;;;;;;12.45;8.07;;;;;;;3.04;54.95;98402.31;3519874;28;20036;-70
2022/01/22 07:16:05;;;;;;;15.25;8.65;;;;;;;3.05;55.07;98401.31;3519974;28;20047;-70
2022/01/22 07:17:46;;;;;;;13.30;8.15;;;;;;;3.06;55.13;98408.22;3520844;28;20445;-70
2022/01/22 07:19:27;;;;;;;17.27;9.47;;;;;;;3.09;54.88;98411.50;3524955;28;20052;-70
2022/01/22 07:21:21;;;;;;;15.00;8.52;;;;;;;3.11;55.21;98420.03;3523996;28;20842;-70
2022/01/22 07:23:14;;;;;;;14.80;8.40;;;;;;;3.11;54.98;98425.31;3507822;28;20447;-71
2022/01/22 07:25:07;;;;;;;14.23;8.27;;;;;;;3.14;54.81;98422.31;3511285;28;20526;-70
2022/01/22 07:26:49;;;;;;;13.65;7.80;;;;;;;3.12;54.75;98419.03;3508490;28;20155;-70
2022/01/22 07:28:34;;;;;;;12.88;7.63;;;;;;;3.15;54.78;98431.84;3509261;28;20066;-71
2022/01/22 07:30:15;;;;;;;17.65;8.70;;;;;;;3.15;54.75;98426.56;3512188;28;20048;-71
2022/01/22 07:32:00;;;;;;;12.48;8.80;;;;;;;3.15;54.56;98437.09;3526618;28;20046;-68
2022/01/22 07:33:41;;;;;;;11.35;8.60;;;;;;;3.19;54.72;98441.03;3520768;28;20032;-71
2022/01/22 07:35:22;;;;;;;11.05;7.70;;;;;;;3.21;54.77;98446.94;3514452;28;20040;-70
2022/01/22 07:37:14;;;;;;;14.48;9.15;;;;;;;3.24;54.47;98451.84;3510892;28;20130;-70
2022/01/22 07:38:55;;;;;;;10.27;8.15;;;;;;;3.27;54.37;98446.22;3508211;28;20036;-70
2022/01/22 07:40:37;;;;;;;17.40;9.50;;;;;;;3.30;54.45;98450.31;3494116;28;20074;-70
2022/01/22 07:42:24;;;;;;;13.32;8.48;;;;;;;3.30;54.46;98461.66;3508135;28;20038;-70
2022/01/22 07:44:23;;;;;;;12.63;8.20;;;;;;;3.33;54.26;98463.09;3524602;28;20779;-70
2022/01/22 07:46:06;;;;;;;10.80;7.13;;;;;;;3.33;54.36;98468.38;3521455;28;20074;-70
2022/01/22 07:47:53;;;;;;;15.65;8.80;;;;;;;3.30;54.32;98466.91;3522413;28;20039;-71
2022/01/22 07:49:55;;;;;;;16.23;8.63;;;;;;;3.34;54.29;98476.09;3512799;28;20042;-71
2022/01/22 07:51:36;;;;;;;14.18;10.02;;;;;;;3.34;54.32;98477.94;3512733;28;20044;-70
2022/01/22 07:53:17;;;;;;;12.60;8.88;;;;;;;3.33;54.15;98478.91;3514678;28;20039;-70
2022/01/22 07:54:58;;;;;;;14.02;9.20;;;;;;;3.32;54.14;98482.53;3518918;28;20079;-71
2022/01/22 07:56:39;;;;;;;17.45;9.30;;;;;;;3.32;54.31;98495.72;3513855;28;20371;-71
2022/01/22 07:58:19;;;;;;;13.02;8.27;;;;;;;3.33;54.29;98481.53;3512691;28;20043;-70
2022/01/22 08:00:00;;;;;;;14.35;9.13;;;;;;;3.35;54.17;98490.09;3511259;28;20486;-70
2022/01/22 08:01:41;;;;;;;13.88;9.30;;;;;;;3.36;54.24;98497.81;3517534;28;20035;-70
2022/01/22 08:03:34;;;;;;;14.85;9.95;;;;;;;3.37;54.14;98490.72;3510920;28;20074;-70
2022/01/22 08:05:33;;;;;;;14.48;8.13;;;;;;;3.40;54.25;98499.09;3511819;28;20414;-70
2022/01/22 08:07:34;;;;;;;16.25;8.20;;;;;;;3.41;54.03;98500.75;3496470;28;20134;-70
2022/01/22 08:09:53;;;;;;;12.20;8.95;;;;;;;3.42;53.94;98496.28;3482381;28;20076;-69
2022/01/22 08:11:39;;;;;;;13.27;9.13;;;;;;;3.42;54.01;98499.72;3468724;28;20145;-70
2022/01/22 08:13:21;;;;;;;15.68;8.88;;;;;;;3.43;53.98;98508.44;3466756;28;20119;-70
2022/01/22 08:15:02;;;;;;;13.57;9.60;;;;;;;3.42;53.98;98502.38;3481975;28;20049;-71
2022/01/22 08:16:46;;;;;;;16.05;8.85;;;;;;;3.43;54.00;98504.03;3483498;28;20056;-70
2022/01/22 08:18:27;;;;;;;14.85;8.35;;;;;;;3.44;53.99;98505.66;3469395;28;20038;-71
2022/01/22 08:20:11;;;;;;;15.38;9.60;;;;;;;3.46;54.00;98513.38;3466208;28;20474;-70
2022/01/22 08:22:15;;;;;;;17.27;8.18;;;;;;;3.49;54.02;98519.09;3466125;28;20112;-72
2022/01/22 08:24:15;;;;;;;17.08;9.02;;;;;;;3.52;54.12;98522.38;3476809;28;20048;-70
2022/01/22 08:26:09;;;;;;;14.60;9.35;;;;;;;3.54;53.96;98521.22;3467908;28;20554;-70
2022/01/22 08:30:10;;;;;;;18.08;10.20;;;;;;;3.59;53.82;98523.28;3470376;28;20136;-70
2022/01/22 08:32:04;;;;;;;15.43;10.10;;;;;;;3.60;53.67;98530.22;3454206;28;20627;-71
2022/01/22 08:35:54;;;;;;;12.30;9.63;;;;;;;3.63;53.75;98525.38;3467969;28;20045;-70
2022/01/22 08:37:37;;;;;;;;;;;;;;;3.75;53.72;98533.69;3467751;28;20116;-70
2022/01/22 08:39:19;;;;;;;21.23;9.32;;;;;;;3.68;53.45;98527.50;3465549;28;19913;-70
2022/01/22 08:41:01;;;;;;;16.10;10.93;;;;;;;3.67;53.46;98533.78;3493311;28;20052;-70
2022/01/22 08:42:45;;;;;;;17.40;9.77;;;;;;;3.67;53.46;98537.22;3510218;28;20040;-70
2022/01/22 08:44:26;;;;;;;14.55;8.57;;;;;;;3.68;53.55;98535.41;3508426;28;20039;-70
2022/01/22 08:46:08;;;;;;;16.45;10.57;;;;;;;3.65;53.51;98539.22;3510675;28;20155;-69
2022/01/22 08:47:49;;;;;;;17.20;10.05;;;;;;;3.68;53.59;98540.66;3507234;28;20043;-71
2022/01/22 08:49:30;;;;;;;15.68;9.90;;;;;;;3.68;53.35;98549.38;3509364;28;20433;-71
2022/01/22 08:51:23;;;;;;;13.30;8.88;;;;;;;3.68;53.42;98544.13;3508716;28;20039;-69
2022/01/22 08:53:06;;;;;;;19.65;11.10;;;;;;;3.71;53.42;98548.22;3507333;28;20044;-71
2022/01/22 08:54:47;;;;;;;20.52;11.68;;;;;;;3.73;53.35;98551.50;3519381;28;20517;-71
2022/01/22 08:56:31;;;;;;;14.48;9.18;;;;;;;3.74;53.48;98555.75;3510829;28;20036;-71
2022/01/22 08:58:13;;;;;;;18.30;10.63;;;;;;;3.76;53.38;98559.03;3507987;28;20083;-70
2022/01/22 09:00:05;;;;;;;20.98;10.77;;;;;;;3.77;53.36;98551.94;3510876;28;20040;-70
2022/01/22 09:01:48;;;;;;;16.98;9.40;;;;;;;3.79;53.19;98563.94;3512624;28;20054;-70
2022/01/22 09:03:49;;;;;;;19.25;10.50;;;;;;;3.82;53.17;98558.34;3502488;28;20498;-70
2022/01/22 09:05:34;;;;;;;18.70;10.73;;;;;;;3.81;53.27;98559.31;3524613;28;20379;-71
2022/01/22 09:07:34;;;;;;;20.15;9.90;;;;;;;3.84;53.16;98558.13;3523692;28;20301;-70
2022/01/22 09:09:27;;;;;;;16.38;11.02;;;;;;;3.84;53.11;98564.22;3517624;28;20436;-70
2022/01/22 09:11:08;;;;;;;14.65;9.90;;;;;;;3.85;52.96;98559.78;3518891;28;20036;-70
2022/01/22 09:13:07;;;;;;;14.82;9.75;;;;;;;3.86;53.13;98572.78;3522547;28;20039;-71
2022/01/22 09:14:53;;;;;;;23.30;11.35;;;;;;;3.87;53.10;98579.69;3523220;28;20051;-71
2022/01/22 09:16:35;;;;;;;15.82;11.23;;;;;;;3.89;53.07;98577.69;3520819;28;20134;-70
2022/01/22 09:18:16;;;;;;;16.00;10.60;;;;;;;3.90;53.06;98575.88;3520460;28;20046;-70
2022/01/22 09:19:58;;;;;;;14.18;10.70;;;;;;;3.91;53.04;98580.97;3520878;28;20428;-71
2022/01/22 09:21:42;;;;;;;;;;;;;;;4.04;53.04;98584.81;3520875;28;20089;-71
2022/01/22 09:23:24;;;;;;;16.23;9.60;;;;;;;3.97;52.85;98584.69;3521958;28;19920;-71
2022/01/22 09:25:07;;;;;;;19.25;10.13;;;;;;;3.98;52.85;98578.44;3516568;28;20483;-70
2022/01/22 09:26:47;;;;;;;17.83;10.70;;;;;;;3.99;52.85;98587.16;3521457;28;20119;-70
2022/01/22 09:28:32;;;;;;;15.50;10.98;;;;;;;4.00;52.93;98580.88;3519406;28;20344;-71
2022/01/22 09:30:14;;;;;;;19.38;11.93;;;;;;;4.02;53.02;98589.44;3518091;28;20175;-69
2022/01/22 09:31:55;;;;;;;15.60;10.52;;;;;;;4.02;52.89;98592.06;3508763;28;20463;-70
2022/01/22 09:34:09;;;;;;;17.23;11.45;;;;;;;4.03;52.89;98604.28;3496441;28;20063;-70
2022/01/22 09:36:12;;;;;;;14.07;10.52;;;;;;;4.05;52.76;98605.72;3511096;28;20044;-69
2022/01/22 09:38:13;;;;;;;17.65;11.10;;;;;;;4.03;52.72;98607.72;3511204;28;20413;-69
2022/01/22 09:40:13;;;;;;;18.38;10.15;;;;;;;4.05;52.86;98610.16;3510275;28;20126;-73
2022/01/22 09:42:20;;;;;;;17.90;10.40;;;;;;;4.05;52.87;98613.63;3509523;28;20048;-75